Time;durP1;ratioP1;P1;durP2;ratioP2;P2;SDS_P1;SDS_P2;PMS_P1;PMS_P2;Temp;Humidity;BMP_temperature;BMP_pressure;BME280_temperature;BME280_humidity;BME280_pressure;Samples;Min_cycle;Max_cycle;Signal;HPM_P1;HPM_P2
2023/02/24 00:01:23;;;;;;;48.28;19.83;;;;;;;;;;5064983;28;20031;-57
2023/02/24 00:03:55;;;;;;;45.33;19.95;;;;;;;;;;5067923;28;20035;-57
2023/02/24 00:06:21;;;;;;;45.25;20.13;;;;;;;;;;5067344;28;20502;-58
2023/02/24 00:08:47;;;;;;;46.63;20.33;;;;;;;;;;5068541;28;20020;-57
2023/02/24 00:11:14;;;;;;;41.60;19.52;;;;;;;;;;5067249;28;20033;-59
2023/02/24 00:13:40;;;;;;;44.75;20.85;;;;;;;;;;5066980;28;20055;-59
2023/02/24 00:16:06;;;;;;;45.10;19.17;;;;;;;;;;5066295;28;20020;-59
2023/02/24 00:18:32;;;;;;;47.00;21.25;;;;;;;;;;5065142;28;20031;-59
2023/02/24 00:21:09;;;;;;;49.45;20.55;;;;;;;;;;5064832;28;20028;-57
2023/02/24 00:23:37;;;;;;;45.50;19.88;;;;;;;;;;5065554;28;20036;-58
2023/02/24 00:26:05;;;;;;;47.80;20.65;;;;;;;;;;5067689;28;20050;-58
2023/02/24 00:28:31;;;;;;;53.50;21.98;;;;;;;;;;5064502;28;20048;-57
2023/02/24 00:31:02;;;;;;;46.47;21.77;;;;;;;;;;5063951;28;20052;-58
2023/02/24 00:33:27;;;;;;;48.22;21.85;;;;;;;;;;5064674;28;20060;-58
2023/02/24 00:35:54;;;;;;;48.05;20.38;;;;;;;;;;5067482;28;20063;-59
2023/02/24 00:38:19;;;;;;;45.45;21.10;;;;;;;;;;5064141;28;20522;-59
2023/02/24 00:40:44;;;;;;;53.75;22.50;;;;;;;;;;5061652;28;20029;-57
2023/02/24 00:43:11;;;;;;;48.60;21.08;;;;;;;;;;5060733;28;20108;-58
2023/02/24 00:45:38;;;;;;;46.38;20.67;;;;;;;;;;5060272;28;20032;-58
2023/02/24 00:48:05;;;;;;;47.45;20.25;;;;;;;;;;5063751;28;20028;-58
2023/02/24 00:50:30;;;;;;;48.58;23.20;;;;;;;;;;5065074;28;20036;-58
2023/02/24 00:52:56;;;;;;;51.40;22.55;;;;;;;;;;5062803;28;20405;-57
2023/02/24 00:55:22;;;;;;;56.63;23.40;;;;;;;;;;5061954;28;20040;-58
2023/02/24 00:57:51;;;;;;;52.13;22.90;;;;;;;;;;5066313;28;20025;-58
2023/02/24 01:00:18;;;;;;;57.97;24.33;;;;;;;;;;5062294;28;20024;-57
2023/02/24 01:02:44;;;;;;;50.08;22.98;;;;;;;;;;5064321;28;20029;-56
2023/02/24 01:05:10;;;;;;;56.30;23.17;;;;;;;;;;5061192;28;20127;-58
2023/02/24 01:07:36;;;;;;;51.05;22.48;;;;;;;;;;5064979;28;20020;-57
2023/02/24 01:10:04;;;;;;;52.70;23.95;;;;;;;;;;5065094;28;20031;-57
2023/02/24 01:12:48;;;;;;;47.70;22.95;;;;;;;;;;5066945;28;20299;-58
2023/02/24 01:15:15;;;;;;;56.72;23.30;;;;;;;;;;5069204;28;20028;-57
2023/02/24 01:17:41;;;;;;;51.05;22.75;;;;;;;;;;5066530;28;20035;-57
2023/02/24 01:20:15;;;;;;;56.65;23.77;;;;;;;;;;5066657;28;20020;-58
2023/02/24 01:22:42;;;;;;;56.30;24.92;;;;;;;;;;5067707;28;20032;-58
2023/02/24 01:25:08;;;;;;;59.92;25.10;;;;;;;;;;5070048;28;20507;-58
2023/02/24 01:27:35;;;;;;;55.88;24.55;;;;;;;;;;5067405;28;20028;-58
2023/02/24 01:30:03;;;;;;;49.20;23.58;;;;;;;;;;5064521;28;20120;-59
2023/02/24 01:32:30;;;;;;;55.88;24.27;;;;;;;;;;5064304;28;20024;-59
2023/02/24 01:34:56;;;;;;;56.92;23.60;;;;;;;;;;5064900;28;20521;-57
2023/02/24 01:37:22;;;;;;;58.33;26.02;;;;;;;;;;5063971;28;20032;-58
2023/02/24 01:39:47;;;;;;;54.60;24.17;;;;;;;;;;5067628;28;20032;-58
2023/02/24 01:42:18;;;;;;;64.40;25.27;;;;;;;;;;5063026;28;20025;-58
2023/02/24 01:44:43;;;;;;;56.25;23.65;;;;;;;;;;5068100;28;20043;-58
2023/02/24 01:47:10;;;;;;;54.85;22.38;;;;;;;;;;5066001;28;20111;-58
2023/02/24 01:49:38;;;;;;;48.50;22.75;;;;;;;;;;5063223;28;20068;-58
2023/02/24 01:52:12;;;;;;;54.13;23.15;;;;;;;;;;5068625;28;20038;-58
2023/02/24 01:54:41;;;;;;;54.58;22.80;;;;;;;;;;5061965;28;20416;-58
2023/02/24 01:57:09;;;;;;;50.30;23.23;;;;;;;;;;5068960;28;20489;-58
2023/02/24 01:59:35;;;;;;;54.47;22.88;;;;;;;;;;5067908;28;21375;-58
2023/02/24 02:02:05;;;;;;;59.55;23.77;;;;;;;;;;5068728;28;20509;-59
2023/02/24 02:04:41;;;;;;;58.55;23.92;;;;;;;;;;5068401;28;20119;-57
2023/02/24 02:07:11;;;;;;;55.38;23.73;;;;;;;;;;5068762;28;20632;-57
2023/02/24 02:09:40;;;;;;;53.38;22.50;;;;;;;;;;5068823;28;20544;-57
2023/02/24 02:12:06;;;;;;;57.53;23.45;;;;;;;;;;5067164;28;20039;-57
2023/02/24 02:14:31;;;;;;;55.88;23.60;;;;;;;;;;5067137;28;20028;-57
2023/02/24 02:17:13;;;;;;;52.20;23.70;;;;;;;;;;5065988;28;20031;-57
2023/02/24 02:20:14;;;;;;;50.97;22.15;;;;;;;;;;5066223;28;20482;-58
2023/02/24 02:23:16;;;;;;;62.67;24.88;;;;;;;;;;5066289;28;20168;-57
2023/02/24 02:25:57;;;;;;;58.70;23.95;;;;;;;;;;5065482;28;20073;-58
2023/02/24 02:28:55;;;;;;;55.10;24.90;;;;;;;;;;5063767;28;20031;-57
2023/02/24 02:31:39;;;;;;;51.70;22.53;;;;;;;;;;5066979;28;20064;-58
2023/02/24 02:34:10;;;;;;;52.75;23.35;;;;;;;;;;5069650;28;20020;-58
2023/02/24 02:37:15;;;;;;;51.08;22.17;;;;;;;;;;5066754;28;20036;-57
2023/02/24 02:40:06;;;;;;;48.65;22.08;;;;;;;;;;5060881;28;20029;-57
2023/02/24 02:42:45;;;;;;;51.45;21.65;;;;;;;;;;5066599;28;20024;-57
2023/02/24 02:45:23;;;;;;;53.45;20.92;;;;;;;;;;5064855;28;20401;-57
2023/02/24 02:48:14;;;;;;;52.38;21.85;;;;;;;;;;5064772;28;20051;-58
2023/02/24 02:50:51;;;;;;;48.17;20.92;;;;;;;;;;5042908;28;20041;-57
2023/02/24 02:53:23;;;;;;;52.10;21.02;;;;;;;;;;5064306;28;20028;-57
2023/02/24 02:55:58;;;;;;;48.75;20.38;;;;;;;;;;5068762;28;20032;-57
2023/02/24 02:58:29;;;;;;;50.38;20.67;;;;;;;;;;5067354;28;20032;-58
2023/02/24 03:01:01;;;;;;;49.38;20.67;;;;;;;;;;5067010;28;20028;-58
2023/02/24 03:03:49;;;;;;;42.90;19.63;;;;;;;;;;5060700;28;20640;-58
2023/02/24 03:06:30;;;;;;;56.08;19.98;;;;;;;;;;5065820;28;20493;-58
2023/02/24 03:09:24;;;;;;;46.33;20.10;;;;;;;;;;5060528;28;20028;-57
2023/02/24 03:12:01;;;;;;;48.45;19.67;;;;;;;;;;5065528;28;20031;-58
2023/02/24 03:14:41;;;;;;;50.45;20.48;;;;;;;;;;5066272;28;20115;-57
2023/02/24 03:17:15;;;;;;;47.67;20.65;;;;;;;;;;5066865;28;20393;-58
2023/02/24 03:19:42;;;;;;;53.53;20.52;;;;;;;;;;5065890;28;20287;-58
2023/02/24 03:22:24;;;;;;;47.42;21.27;;;;;;;;;;5062347;28;20076;-57
2023/02/24 03:24:49;;;;;;;53.45;22.58;;;;;;;;;;5065226;28;20028;-58
2023/02/24 03:27:30;;;;;;;46.80;20.13;;;;;;;;;;5065419;28;20031;-58
2023/02/24 03:29:58;;;;;;;49.63;20.30;;;;;;;;;;5064246;28;20035;-57
2023/02/24 03:32:31;;;;;;;51.83;21.95;;;;;;;;;;5064536;28;20029;-57
2023/02/24 03:35:03;;;;;;;49.97;21.48;;;;;;;;;;5063259;28;20436;-58
2023/02/24 03:37:30;;;;;;;48.78;20.85;;;;;;;;;;5064676;28;20375;-57
2023/02/24 03:39:57;;;;;;;44.17;20.15;;;;;;;;;;5065183;28;20451;-57
2023/02/24 03:42:27;;;;;;;50.65;20.35;;;;;;;;;;5062251;28;20363;-58
2023/02/24 03:44:56;;;;;;;51.63;21.33;;;;;;;;;;5064049;28;20028;-58
2023/02/24 03:47:23;;;;;;;;;;;;;;;;;;5059963;28;20024;-58
2023/02/24 03:49:49;;;;;;;52.55;20.65;;;;;;;;;;5060408;28;20007;-58
2023/02/24 03:52:40;;;;;;;53.50;22.02;;;;;;;;;;5059228;28;20033;-58
2023/02/24 03:55:07;;;;;;;50.92;22.05;;;;;;;;;;5069963;28;20478;-57
2023/02/24 03:57:33;;;;;;;61.00;23.42;;;;;;;;;;5065821;28;20032;-56
2023/02/24 04:00:24;;;;;;;54.28;21.63;;;;;;;;;;5067673;28;20025;-56
2023/02/24 04:02:59;;;;;;;67.57;23.23;;;;;;;;;;5066279;28;20031;-57
2023/02/24 04:05:28;;;;;;;75.88;26.33;;;;;;;;;;5065340;28;20395;-57
2023/02/24 04:08:06;;;;;;;80.05;26.42;;;;;;;;;;5065662;28;20065;-57
2023/02/24 04:10:52;;;;;;;83.18;25.83;;;;;;;;;;5065023;28;20083;-56
2023/02/24 04:13:35;;;;;;;80.15;25.50;;;;;;;;;;5063696;28;20071;-57
2023/02/24 04:16:17;;;;;;;81.68;27.05;;;;;;;;;;5060993;28;20040;-57
2023/02/24 04:18:48;;;;;;;98.65;28.45;;;;;;;;;;5062250;28;20048;-57
2023/02/24 04:21:15;;;;;;;87.10;29.08;;;;;;;;;;5063283;28;20052;-57
2023/02/24 04:23:43;;;;;;;100.28;30.73;;;;;;;;;;5066269;28;20028;-57
2023/02/24 04:26:11;;;;;;;111.97;35.25;;;;;;;;;;5065764;28;20028;-57
2023/02/24 04:28:39;;;;;;;101.00;30.27;;;;;;;;;;5064635;28;20029;-57
2023/02/24 04:31:09;;;;;;;95.43;30.55;;;;;;;;;;5063280;28;20029;-57
2023/02/24 04:33:37;;;;;;;89.78;30.25;;;;;;;;;;5064197;28;20029;-57
2023/02/24 04:36:04;;;;;;;95.68;28.38;;;;;;;;;;5062064;28;20025;-56
2023/02/24 04:38:29;;;;;;;86.28;28.95;;;;;;;;;;5064425;28;20111;-56
2023/02/24 04:40:56;;;;;;;91.55;27.92;;;;;;;;;;5064928;28;20116;-56
2023/02/24 04:43:21;;;;;;;85.50;27.60;;;;;;;;;;5066081;28;20032;-57
2023/02/24 04:45:47;;;;;;;89.45;26.73;;;;;;;;;;5064971;28;20047;-55
2023/02/24 04:48:13;;;;;;;85.07;27.50;;;;;;;;;;5066820;28;20397;-57
2023/02/24 04:50:40;;;;;;;84.15;26.50;;;;;;;;;;5066252;28;20025;-57
2023/02/24 04:53:09;;;;;;;90.65;28.30;;;;;;;;;;5067818;28;20546;-57
2023/02/24 04:55:41;;;;;;;92.13;27.33;;;;;;;;;;5070739;28;20036;-57
2023/02/24 04:58:10;;;;;;;89.78;25.58;;;;;;;;;;5060645;28;20505;-57
2023/02/24 05:00:35;;;;;;;93.60;27.92;;;;;;;;;;5068712;28;20028;-57
2023/02/24 05:03:05;;;;;;;87.32;26.77;;;;;;;;;;5071230;28;20081;-57
2023/02/24 05:05:34;;;;;;;87.60;28.75;;;;;;;;;;5070687;28;20398;-57
2023/02/24 05:08:05;;;;;;;94.25;28.98;;;;;;;;;;5070254;28;20383;-58
2023/02/24 05:10:37;;;;;;;92.97;27.17;;;;;;;;;;5069430;28;20032;-57
2023/02/24 05:13:02;;;;;;;84.00;26.67;;;;;;;;;;5068507;28;20044;-56
2023/02/24 05:15:32;;;;;;;78.10;26.05;;;;;;;;;;5070557;28;20101;-56
2023/02/24 05:18:06;;;;;;;76.28;25.42;;;;;;;;;;5061843;28;20066;-55
2023/02/24 05:23:24;;;;;;;54.28;20.33;;;;;;;;;;5067331;28;20039;-58
2023/02/24 05:25:53;;;;;;;51.63;20.30;;;;;;;;;;5069893;28;20029;-56
2023/02/24 05:28:22;;;;;;;50.80;20.58;;;;;;;;;;5063419;28;20474;-57
2023/02/24 05:30:49;;;;;;;51.88;20.77;;;;;;;;;;5065608;28;20044;-58
2023/02/24 05:33:15;;;;;;;50.03;21.50;;;;;;;;;;5068005;28;20485;-57
2023/02/24 05:35:40;;;;;;;50.83;19.67;;;;;;;;;;5053419;28;20032;-57
2023/02/24 05:38:07;;;;;;;50.97;20.27;;;;;;;;;;5066222;28;20070;-56
2023/02/24 05:40:33;;;;;;;54.42;20.60;;;;;;;;;;5063205;28;20029;-57
2023/02/24 05:43:03;;;;;;;51.45;22.23;;;;;;;;;;5063368;28;20024;-57
2023/02/24 05:45:29;;;;;;;54.60;22.70;;;;;;;;;;5062430;28;20397;-58
2023/02/24 05:47:55;;;;;;;56.40;22.05;;;;;;;;;;5065822;28;20493;-56
2023/02/24 05:50:25;;;;;;;46.03;19.65;;;;;;;;;;5065785;28;20077;-57
2023/02/24 05:52:51;;;;;;;54.85;18.80;;;;;;;;;;5069200;28;20031;-57
2023/02/24 05:55:17;;;;;;;45.67;18.75;;;;;;;;;;5070574;28;20024;-57
2023/02/24 05:57:42;;;;;;;48.25;19.40;;;;;;;;;;5068512;28;20031;-56
2023/02/24 06:00:15;;;;;;;44.08;18.88;;;;;;;;;;5068039;28;20023;-57
2023/02/24 06:02:48;;;;;;;47.08;19.23;;;;;;;;;;5069664;28;20024;-57
2023/02/24 06:05:24;;;;;;;44.17;17.33;;;;;;;;;;5067541;28;20089;-57
2023/02/24 06:08:01;;;;;;;44.67;18.83;;;;;;;;;;5060807;28;20636;-56
2023/02/24 06:10:27;;;;;;;44.53;18.30;;;;;;;;;;5068407;28;20107;-57
2023/02/24 06:12:53;;;;;;;43.88;18.67;;;;;;;;;;5064922;28;20086;-57
2023/02/24 06:15:18;;;;;;;45.97;19.67;;;;;;;;;;5064926;28;21792;-57
2023/02/24 06:17:43;;;;;;;48.65;18.65;;;;;;;;;;5067393;28;20036;-57
2023/02/24 06:20:14;;;;;;;40.92;18.00;;;;;;;;;;5066548;28;20021;-56
2023/02/24 06:22:41;;;;;;;46.55;18.42;;;;;;;;;;5065760;28;20028;-56
2023/02/24 06:25:08;;;;;;;52.40;20.23;;;;;;;;;;5062906;28;20512;-56
2023/02/24 06:27:35;;;;;;;56.58;22.50;;;;;;;;;;5062130;28;20482;-56
2023/02/24 06:30:01;;;;;;;57.47;22.60;;;;;;;;;;5065987;28;20043;-57
2023/02/24 06:32:27;;;;;;;44.25;20.23;;;;;;;;;;5068245;28;20024;-57
2023/02/24 06:34:53;;;;;;;54.13;21.95;;;;;;;;;;5065524;28;20030;-57
2023/02/24 06:37:19;;;;;;;43.53;19.70;;;;;;;;;;5067734;28;20028;-55
2023/02/24 06:39:45;;;;;;;22.13;9.95;;;;;;;;;;5064206;28;20029;-54
2023/02/24 06:42:11;;;;;;;40.58;16.38;;;;;;;;;;5062480;28;20511;-58
2023/02/24 06:44:38;;;;;;;52.45;20.48;;;;;;;;;;5062653;28;20437;-56
2023/02/24 06:47:06;;;;;;;56.30;21.60;;;;;;;;;;5063986;28;20082;-56
2023/02/24 06:49:31;;;;;;;57.75;22.40;;;;;;;;;;5061594;28;20024;-56
2023/02/24 06:51:57;;;;;;;55.88;22.20;;;;;;;;;;5068530;28;20039;-56
2023/02/24 06:54:27;;;;;;;59.85;22.02;;;;;;;;;;5067670;28;20031;-56
2023/02/24 06:56:52;;;;;;;;;;;;;;;;;;5067799;28;20028;-56
2023/02/24 06:59:20;;;;;;;38.75;13.63;;;;;;;;;;5068344;28;19936;-55
2023/02/24 07:01:47;;;;;;;45.65;13.32;;;;;;;;;;5069530;28;20032;-55
2023/02/24 07:06:41;;;;;;;45.55;16.35;;;;;;;;;;5064917;28;20035;-57
2023/02/24 07:09:11;;;;;;;68.00;23.25;;;;;;;;;;5060119;28;20028;-57
2023/02/24 07:11:41;;;;;;;56.20;22.63;;;;;;;;;;5062372;28;20124;-56
2023/02/24 07:14:10;;;;;;;60.13;22.35;;;;;;;;;;5062112;28;20024;-57
2023/02/24 07:16:36;;;;;;;71.78;23.73;;;;;;;;;;5065091;28;20452;-57
2023/02/24 07:19:10;;;;;;;59.15;21.27;;;;;;;;;;5067461;28;20418;-56
2023/02/24 07:21:38;;;;;;;61.42;22.08;;;;;;;;;;5064176;28;20433;-56
2023/02/24 07:24:05;;;;;;;65.95;22.05;;;;;;;;;;5062457;28;20061;-57
2023/02/24 07:26:30;;;;;;;60.15;21.65;;;;;;;;;;5063023;28;20024;-56
2023/02/24 07:28:56;;;;;;;58.92;21.92;;;;;;;;;;5064945;28;20078;-57
2023/02/24 07:31:24;;;;;;;64.13;22.83;;;;;;;;;;5062631;28;20363;-57
2023/02/24 07:33:55;;;;;;;70.75;23.35;;;;;;;;;;5064952;28;20082;-57
2023/02/24 07:36:28;;;;;;;59.13;22.02;;;;;;;;;;5066235;28;20052;-56
2023/02/24 07:38:54;;;;;;;68.72;23.48;;;;;;;;;;5063254;28;20032;-57
2023/02/24 07:41:21;;;;;;;65.95;22.42;;;;;;;;;;5059653;28;20035;-57
2023/02/24 07:43:51;;;;;;;62.78;21.40;;;;;;;;;;5062669;28;20059;-56
2023/02/24 07:46:23;;;;;;;66.35;23.23;;;;;;;;;;5062528;28;20043;-56
2023/02/24 07:48:49;;;;;;;62.15;22.40;;;;;;;;;;5063589;28;20559;-57
2023/02/24 07:51:19;;;;;;;62.92;20.75;;;;;;;;;;5056461;28;20027;-57
2023/02/24 07:53:51;;;;;;;60.72;22.27;;;;;;;;;;5050105;28;20429;-57
2023/02/24 07:56:18;;;;;;;56.97;22.02;;;;;;;;;;5048426;28;20025;-54
2023/02/24 07:58:49;;;;;;;68.65;22.60;;;;;;;;;;5042437;28;20033;-57
2023/02/24 08:01:22;;;;;;;60.25;22.85;;;;;;;;;;5048563;28;20048;-56
2023/02/24 08:03:54;;;;;;;62.90;21.98;;;;;;;;;;5048043;28;20490;-56
2023/02/24 08:06:26;;;;;;;63.92;22.75;;;;;;;;;;5057521;28;20059;-57
2023/02/24 08:08:57;;;;;;;58.80;22.00;;;;;;;;;;5065982;28;20032;-57
2023/02/24 08:11:34;;;;;;;78.45;22.60;;;;;;;;;;5060597;28;20025;-56
2023/02/24 08:14:02;;;;;;;61.55;21.20;;;;;;;;;;5057203;28;20104;-57
2023/02/24 08:16:41;;;;;;;66.78;23.33;;;;;;;;;;5064131;28;20025;-56
2023/02/24 08:19:31;;;;;;;59.33;21.55;;;;;;;;;;5051575;28;20053;-57
2023/02/24 08:22:09;;;;;;;66.53;23.58;;;;;;;;;;5057803;28;20074;-57
2023/02/24 08:24:35;;;;;;;66.65;23.83;;;;;;;;;;5060664;28;20020;-56
2023/02/24 08:27:04;;;;;;;57.90;19.63;;;;;;;;;;5051161;28;20082;-60
2023/02/24 08:29:56;;;;;;;60.72;21.67;;;;;;;;;;5061710;28;20597;-56
2023/02/24 08:32:45;;;;;;;69.40;23.38;;;;;;;;;;5071672;28;20397;-57
2023/02/24 08:35:16;;;;;;;77.53;28.20;;;;;;;;;;5066249;28;20112;-57
2023/02/24 08:37:50;;;;;;;89.05;30.17;;;;;;;;;;5062327;28;20309;-57
2023/02/24 08:45:59;;;;;;;67.35;20.35;;;;;;;;;;5069142;28;20020;-57
2023/02/24 08:48:48;;;;;;;55.97;20.20;;;;;;;;;;5068455;28;20024;-57
2023/02/24 08:51:27;;;;;;;59.53;19.27;;;;;;;;;;5070985;28;20025;-56
2023/02/24 08:53:55;;;;;;;58.80;18.45;;;;;;;;;;5067380;28;20070;-56
2023/02/24 08:56:23;;;;;;;54.15;17.80;;;;;;;;;;5067817;28;20638;-56
2023/02/24 08:59:06;;;;;;;52.67;18.33;;;;;;;;;;5069349;28;20021;-56
2023/02/24 09:01:36;;;;;;;57.78;17.23;;;;;;;;;;5071259;28;20507;-56
2023/02/24 09:04:08;;;;;;;55.00;18.65;;;;;;;;;;5072197;28;20039;-56
2023/02/24 09:06:42;;;;;;;55.45;17.63;;;;;;;;;;5069069;28;20032;-55
2023/02/24 09:09:17;;;;;;;47.83;18.08;;;;;;;;;;5072107;28;20024;-56
2023/02/24 09:11:45;;;;;;;51.15;18.48;;;;;;;;;;5071952;28;20063;-56
2023/02/24 09:14:15;;;;;;;52.35;19.52;;;;;;;;;;5069328;28;20024;-56
2023/02/24 09:17:02;;;;;;;54.55;18.13;;;;;;;;;;5068483;28;20039;-56
2023/02/24 09:22:39;;;;;;;50.75;19.10;;;;;;;;;;5044022;28;20037;-55
2023/02/24 09:25:22;;;;;;;50.10;18.52;;;;;;;;;;5069247;28;20028;-56
2023/02/24 09:28:15;;;;;;;54.47;18.80;;;;;;;;;;5068115;28;20078;-56
2023/02/24 09:30:54;;;;;;;56.03;20.38;;;;;;;;;;5067771;28;20557;-56
2023/02/24 09:33:27;;;;;;;43.10;16.60;;;;;;;;;;5068540;28;20029;-56
2023/02/24 09:36:11;;;;;;;47.33;17.17;;;;;;;;;;5065612;28;20103;-56
2023/02/24 09:39:13;;;;;;;44.22;16.63;;;;;;;;;;5069511;28;20029;-57
2023/02/24 09:44:37;;;;;;;34.60;12.90;;;;;;;;;;5043299;28;20025;-56
2023/02/24 09:47:18;;;;;;;33.72;11.93;;;;;;;;;;5065697;28;20115;-56
2023/02/24 09:50:14;;;;;;;31.48;11.38;;;;;;;;;;5063141;28;20033;-56
2023/02/24 09:52:40;;;;;;;27.40;11.73;;;;;;;;;;5066226;28;20430;-57
2023/02/24 09:55:26;;;;;;;29.30;12.20;;;;;;;;;;5069265;28;20016;-57
2023/02/24 10:00:55;;;;;;;24.58;10.88;;;;;;;;;;5069909;28;20020;-58
2023/02/24 10:03:46;;;;;;;33.90;11.80;;;;;;;;;;5070685;28;20029;-59
2023/02/24 10:06:34;;;;;;;23.38;11.40;;;;;;;;;;5069054;28;20028;-57
2023/02/24 10:09:20;;;;;;;36.42;12.52;;;;;;;;;;5070315;28;20050;-57
2023/02/24 10:12:17;;;;;;;27.27;12.05;;;;;;;;;;5064557;28;20111;-57
2023/02/24 10:15:17;;;;;;;33.08;11.43;;;;;;;;;;5064335;28;20056;-58
2023/02/24 10:17:51;;;;;;;31.42;13.10;;;;;;;;;;5067085;28;20069;-57
2023/02/24 10:20:38;;;;;;;32.78;13.13;;;;;;;;;;5069668;28;20024;-58
2023/02/24 10:23:34;;;;;;;33.13;12.98;;;;;;;;;;5064468;28;20075;-58
2023/02/24 10:26:20;;;;;;;35.25;14.13;;;;;;;;;;5064708;28;20021;-57
2023/02/24 10:29:17;;;;;;;38.90;13.80;;;;;;;;;;5061615;28;20037;-57
2023/02/24 10:31:56;;;;;;;32.72;12.00;;;;;;;;;;5065933;28;20436;-58
2023/02/24 10:34:30;;;;;;;32.15;12.90;;;;;;;;;;5067195;28;20040;-57
2023/02/24 10:37:17;;;;;;;36.28;13.30;;;;;;;;;;5064624;28;20035;-58
2023/02/24 10:39:42;;;;;;;31.10;12.30;;;;;;;;;;5068409;28;20024;-58
2023/02/24 10:42:14;;;;;;;34.67;13.32;;;;;;;;;;5067316;28;20444;-57
2023/02/24 10:44:52;;;;;;;37.10;12.90;;;;;;;;;;5064321;28;20033;-57
2023/02/24 10:47:30;;;;;;;31.20;12.25;;;;;;;;;;5063958;28;20016;-58
2023/02/24 10:50:05;;;;;;;32.78;12.77;;;;;;;;;;5066937;28;20029;-57
2023/02/24 10:55:37;;;;;;;35.45;12.50;;;;;;;;;;5063414;28;20076;-58
2023/02/24 10:58:05;;;;;;;34.53;13.00;;;;;;;;;;5064127;28;20032;-57
2023/02/24 11:03:35;;;;;;;34.20;13.02;;;;;;;;;;5069553;28;20098;-57
2023/02/24 11:11:24;;;;;;;33.92;12.00;;;;;;;;;;5066331;28;20025;-57
2023/02/24 11:17:35;;;;;;;27.25;11.38;;;;;;;;;;5065888;28;20047;-58
2023/02/24 11:20:00;;;;;;;35.47;12.23;;;;;;;;;;5057322;28;20509;-57
2023/02/24 11:22:33;;;;;;;;;;;;;;;;;;5065908;28;20054;-57
2023/02/24 11:25:12;;;;;;;25.40;11.18;;;;;;;;;;5067366;28;20054;-58
2023/02/24 11:27:40;;;;;;;;;;;;;;;;;;5065204;28;20390;-58
2023/02/24 11:30:23;;;;;;;30.88;12.73;;;;;;;;;;5065133;28;19939;-58
2023/02/24 11:33:33;;;;;;;34.90;13.32;;;;;;;;;;5068073;28;20048;-58
2023/02/24 11:36:04;;;;;;;28.63;12.30;;;;;;;;;;5017480;28;20041;-58
2023/02/24 11:38:38;;;;;;;31.60;11.82;;;;;;;;;;5062303;28;20052;-57
2023/02/24 11:41:24;;;;;;;31.67;12.38;;;;;;;;;;5063795;28;20020;-57
2023/02/24 11:44:08;;;;;;;35.40;12.57;;;;;;;;;;5064093;28;20078;-58
2023/02/24 11:46:48;;;;;;;30.73;11.68;;;;;;;;;;5063628;28;20031;-58
2023/02/24 11:49:27;;;;;;;35.20;12.00;;;;;;;;;;5067310;28;20033;-57
2023/02/24 11:51:54;;;;;;;26.95;9.50;;;;;;;;;;5066532;28;20029;-57
2023/02/24 11:54:22;;;;;;;16.50;7.75;;;;;;;;;;5067833;28;20086;-56
2023/02/24 11:56:53;;;;;;;22.15;8.48;;;;;;;;;;5063712;28;20032;-57
2023/02/24 11:59:35;;;;;;;26.35;8.43;;;;;;;;;;5067992;28;20036;-56
2023/02/24 12:02:26;;;;;;;23.42;8.73;;;;;;;;;;5064605;28;20028;-58
2023/02/24 12:04:59;;;;;;;29.80;11.13;;;;;;;;;;5067232;28;20032;-57
2023/02/24 12:07:32;;;;;;;30.15;10.25;;;;;;;;;;5066290;28;20056;-58
2023/02/24 12:10:04;;;;;;;31.42;10.40;;;;;;;;;;5065874;28;20032;-57
2023/02/24 12:12:58;;;;;;;26.92;10.55;;;;;;;;;;5061941;28;20028;-57
2023/02/24 12:15:29;;;;;;;33.10;11.82;;;;;;;;;;5027586;28;20044;-58
2023/02/24 12:18:30;;;;;;;29.70;10.80;;;;;;;;;;5064756;28;20490;-58
2023/02/24 12:21:12;;;;;;;33.80;11.57;;;;;;;;;;5061313;28;20168;-58
2023/02/24 12:23:43;;;;;;;27.15;8.43;;;;;;;;;;5066127;28;20088;-57
2023/02/24 12:26:28;;;;;;;17.80;8.07;;;;;;;;;;5063307;28;20024;-57
2023/02/24 12:29:18;;;;;;;20.40;8.10;;;;;;;;;;5065139;28;20067;-56
2023/02/24 12:31:55;;;;;;;22.42;8.60;;;;;;;;;;5064347;28;20854;-55
2023/02/24 12:34:48;;;;;;;28.13;9.52;;;;;;;;;;5067437;28;20031;-56
2023/02/24 12:37:31;;;;;;;23.80;8.35;;;;;;;;;;5065018;28;20071;-57
2023/02/24 12:40:00;;;;;;;28.13;10.35;;;;;;;;;;5065695;28;20032;-58
2023/02/24 12:42:41;;;;;;;27.42;9.95;;;;;;;;;;5064166;28;20035;-56
2023/02/24 12:45:29;;;;;;;37.38;12.95;;;;;;;;;;5064029;28;20032;-59
2023/02/24 12:48:19;;;;;;;38.30;12.25;;;;;;;;;;5064720;28;20097;-59
2023/02/24 12:51:05;;;;;;;27.38;8.60;;;;;;;;;;5064828;28;20036;-59
2023/02/24 12:53:43;;;;;;;56.08;18.98;;;;;;;;;;5066257;28;20393;-58
2023/02/24 12:56:14;;;;;;;32.90;9.93;;;;;;;;;;5064793;28;20032;-60
2023/02/24 12:58:43;;;;;;;26.70;8.95;;;;;;;;;;5063596;28;20024;-60
2023/02/24 13:01:11;;;;;;;31.33;9.48;;;;;;;;;;5066080;28;20046;-59
2023/02/24 13:03:55;;;;;;;26.98;9.40;;;;;;;;;;5065146;28;20033;-59
2023/02/24 13:06:45;;;;;;;23.50;10.07;;;;;;;;;;5064566;28;20032;-59
2023/02/24 13:09:26;;;;;;;34.30;9.65;;;;;;;;;;5069978;28;20032;-59
2023/02/24 13:11:55;;;;;;;26.13;9.50;;;;;;;;;;5070654;28;20400;-59
2023/02/24 13:14:31;;;;;;;30.02;9.63;;;;;;;;;;5069849;28;20028;-59
2023/02/24 13:17:09;;;;;;;24.52;8.90;;;;;;;;;;5067521;28;20045;-60
2023/02/24 13:19:35;;;;;;;35.47;9.95;;;;;;;;;;5068909;28;20036;-59
2023/02/24 13:22:11;;;;;;;23.90;8.98;;;;;;;;;;5069473;28;20028;-59
2023/02/24 13:24:56;;;;;;;27.13;9.30;;;;;;;;;;5067790;28;20450;-59
2023/02/24 13:27:33;;;;;;;25.35;9.25;;;;;;;;;;5068548;28;20442;-59
2023/02/24 13:30:06;;;;;;;29.88;9.05;;;;;;;;;;5067650;28;20033;-59
2023/02/24 13:32:35;;;;;;;29.48;9.02;;;;;;;;;;5068325;28;20119;-59
2023/02/24 13:35:23;;;;;;;29.10;9.90;;;;;;;;;;5070429;28;20020;-59
2023/02/24 13:37:48;;;;;;;24.15;9.10;;;;;;;;;;5061991;28;20425;-59
2023/02/24 13:40:16;;;;;;;22.35;8.07;;;;;;;;;;5068038;28;20095;-59
2023/02/24 13:43:03;;;;;;;28.85;8.55;;;;;;;;;;5069176;28;20103;-59
2023/02/24 13:45:40;;;;;;;27.85;10.20;;;;;;;;;;5068264;28;20102;-59
2023/02/24 13:48:08;;;;;;;24.55;8.07;;;;;;;;;;5067641;28;20016;-58
2023/02/24 13:50:37;;;;;;;29.40;10.18;;;;;;;;;;5066325;28;20385;-59
2023/02/24 13:53:25;;;;;;;23.48;8.10;;;;;;;;;;5067819;28;20459;-59
2023/02/24 13:56:16;;;;;;;25.15;8.25;;;;;;;;;;5067190;28;20025;-59
2023/02/24 13:59:10;;;;;;;25.92;8.10;;;;;;;;;;5067191;28;20035;-59
2023/02/24 14:01:59;;;;;;;32.30;9.93;;;;;;;;;;5029856;28;20130;-59
2023/02/24 14:04:30;;;;;;;29.75;9.15;;;;;;;;;;5068945;28;20672;-59
2023/02/24 14:07:00;;;;;;;20.33;8.05;;;;;;;;;;5068649;28;20066;-60
2023/02/24 14:09:36;;;;;;;22.70;8.32;;;;;;;;;;5067031;28;20115;-59
2023/02/24 14:12:24;;;;;;;36.28;9.57;;;;;;;;;;5069337;28;20077;-60
2023/02/24 14:14:51;;;;;;;29.08;9.45;;;;;;;;;;5068224;28;20064;-59
2023/02/24 14:17:31;;;;;;;18.40;8.07;;;;;;;;;;5066505;28;20055;-59
2023/02/24 14:20:08;;;;;;;25.20;9.23;;;;;;;;;;5065884;28;20402;-58
2023/02/24 14:22:41;;;;;;;35.13;12.00;;;;;;;;;;5064458;28;20749;-58
2023/02/24 14:25:08;;;;;;;29.45;9.48;;;;;;;;;;5067990;28;20514;-59
2023/02/24 14:27:35;;;;;;;25.67;9.43;;;;;;;;;;5068683;28;20547;-59
2023/02/24 14:30:01;;;;;;;27.77;10.27;;;;;;;;;;5067938;28;20345;-60
2023/02/24 14:32:27;;;;;;;26.08;9.10;;;;;;;;;;5068775;28;20095;-61
2023/02/24 14:34:53;;;;;;;23.27;8.07;;;;;;;;;;5069651;28;20068;-60
2023/02/24 14:37:25;;;;;;;30.15;7.68;;;;;;;;;;5069775;28;20024;-59
2023/02/24 14:39:57;;;;;;;22.75;7.85;;;;;;;;;;5069128;28;20129;-60
2023/02/24 14:42:23;;;;;;;21.20;8.02;;;;;;;;;;5061723;28;20029;-62
2023/02/24 14:44:51;;;;;;;22.80;8.75;;;;;;;;;;5067350;28;20141;-63
2023/02/24 14:47:20;;;;;;;26.75;7.72;;;;;;;;;;5065106;28;20056;-61
2023/02/24 14:50:01;;;;;;;23.15;7.78;;;;;;;;;;5067360;28;20029;-60
2023/02/24 14:52:38;;;;;;;19.35;7.88;;;;;;;;;;5068991;28;20051;-61
2023/02/24 14:55:31;;;;;;;28.77;9.90;;;;;;;;;;5067136;28;20066;-64
2023/02/24 14:58:05;;;;;;;24.70;8.77;;;;;;;;;;5068347;28;20029;-60
2023/02/24 15:00:42;;;;;;;30.13;9.38;;;;;;;;;;5065050;28;20098;-61
2023/02/24 15:03:23;;;;;;;28.67;9.65;;;;;;;;;;5067894;28;20029;-60
2023/02/24 15:05:53;;;;;;;27.70;8.68;;;;;;;;;;5064849;28;20862;-61
2023/02/24 15:08:27;;;;;;;27.92;9.77;;;;;;;;;;5063110;28;20036;-59
2023/02/24 15:10:53;;;;;;;30.50;10.13;;;;;;;;;;5067523;28;20028;-59
2023/02/24 15:13:51;;;;;;;30.67;10.95;;;;;;;;;;5067878;28;20020;-58
2023/02/24 15:16:28;;;;;;;28.08;10.23;;;;;;;;;;5067730;28;20070;-59
2023/02/24 15:18:56;;;;;;;27.00;8.55;;;;;;;;;;5066559;28;20090;-59
2023/02/24 15:21:38;;;;;;;27.75;10.40;;;;;;;;;;5067847;28;20039;-59
2023/02/24 15:24:17;;;;;;;29.55;11.30;;;;;;;;;;5066679;28;20039;-61
2023/02/24 15:26:51;;;;;;;22.73;8.60;;;;;;;;;;5067515;28;20032;-59
2023/02/24 15:29:25;;;;;;;25.48;7.85;;;;;;;;;;5067788;28;20024;-59
2023/02/24 15:31:51;;;;;;;21.55;8.18;;;;;;;;;;5066740;28;20058;-59
2023/02/24 15:34:24;;;;;;;22.80;8.98;;;;;;;;;;5067643;28;20024;-58